Aviation Digital Data Service (ADDS)

Output produced by TAFs form (1130 UTC 19 January 2018)
found at http://www.aviationweather.gov/adds/tafs/
 
RJSN 191100Z 13003KT 9999 FEW030 BKN040 BKN/// 04/M00 Q1020
TAF RJSN 191106Z 1912/2018 14005KT 9999 FEW030 SCT040 
     BECMG 2009/2012 22006KT 
     TEMPO 2009/2015 4000 -SHRASNGS BR FEW010 BKN020 FEW020CB 
     BECMG 2012/2015 34012KT 
     TEMPO 2015/2018 3000 -SHSNRA BR